createdAt,value
2022-08-03T00:02:31.888Z,63.32
2022-08-03T00:05:39.945Z,63.72
2022-08-03T00:08:47.436Z,63.85
2022-08-03T00:11:55.021Z,64.06
2022-08-03T00:15:03.119Z,64.15
2022-08-03T00:18:10.767Z,64.75
2022-08-03T00:21:18.270Z,64.89
2022-08-03T00:24:23.214Z,65.89
2022-08-03T00:27:32.589Z,65.39
2022-08-03T00:30:40.844Z,65.42
2022-08-03T00:33:58.663Z,65.82
2022-08-03T00:36:54.767Z,67.02
2022-08-03T00:40:03.658Z,66.82
2022-08-03T00:43:02.608Z,66.45
2022-08-03T00:46:10.190Z,66.35
2022-08-03T00:49:18.245Z,66.45
2022-08-03T00:52:25.840Z,65.55
2022-08-03T00:55:33.604Z,65.75
2022-08-03T00:58:41.974Z,66.55
2022-08-03T01:01:49.762Z,65.35
2022-08-03T01:04:57.504Z,65.45
2022-08-03T01:08:05.140Z,65.65
2022-08-03T01:11:13.059Z,65.65
2022-08-03T01:14:20.809Z,66.05
2022-08-03T01:17:28.579Z,65.68
2022-08-03T01:20:36.851Z,66.18
2022-08-03T01:23:44.175Z,65.78
2022-08-03T01:26:52.363Z,66.38
2022-08-03T01:29:59.974Z,66.08
2022-08-03T01:33:07.626Z,66.18
2022-08-03T01:36:15.867Z,66.48
2022-08-03T01:39:23.658Z,66.48
2022-08-03T01:42:31.371Z,66.71
2022-08-03T01:45:39.537Z,66.41
2022-08-03T01:48:47.465Z,66.61
2022-08-03T01:51:58.544Z,66.52
2022-08-03T01:55:00.137Z,66.82
2022-08-03T01:58:08.064Z,66.82
2022-08-03T02:01:15.827Z,66.82
2022-08-03T02:04:23.161Z,66.82
2022-08-03T02:07:31.111Z,67.02
2022-08-03T02:10:38.440Z,66.91
2022-08-03T02:13:46.508Z,67.35
2022-08-03T02:16:54.491Z,67.05
2022-08-03T02:20:01.825Z,66.95
2022-08-03T02:23:10.034Z,66.85
2022-08-03T02:26:18.411Z,66.85
2022-08-03T02:29:39.331Z,66.85
2022-08-03T02:32:31.414Z,66.85
2022-08-03T02:35:39.266Z,66.85
2022-08-03T02:38:47.226Z,66.85
2022-08-03T02:41:55.428Z,67.65
2022-08-03T02:45:03.478Z,67.48
2022-08-03T02:48:11.003Z,67.28
2022-08-03T02:51:18.711Z,67.18
2022-08-03T02:54:26.911Z,67.28
2022-08-03T02:57:35.980Z,67.08
2022-08-03T03:00:43.874Z,67.48
2022-08-03T03:03:52.094Z,67.38
2022-08-03T03:07:01.865Z,67.18
2022-08-03T03:10:01.366Z,67.68
2022-08-03T03:13:09.048Z,68.12
2022-08-03T03:16:17.688Z,67.82
2022-08-03T03:19:25.982Z,68.12
2022-08-03T03:22:33.800Z,67.82
2022-08-03T03:25:41.596Z,68.32
2022-08-03T03:28:49.582Z,68.21
2022-08-03T03:31:57.564Z,68.72
2022-08-03T03:35:05.323Z,68.75
2022-08-03T03:38:12.975Z,68.95
2022-08-03T03:41:20.648Z,68.65
2022-08-03T03:44:28.283Z,68.05
2022-08-03T03:47:36.247Z,68.75
2022-08-03T03:50:43.501Z,67.91
2022-08-03T03:53:51.562Z,67.91
2022-08-03T03:56:59.312Z,68.82
2022-08-03T04:00:06.594Z,69.02
2022-08-03T04:03:14.704Z,68.82
2022-08-03T04:06:22.374Z,69.02
2022-08-03T04:09:30.122Z,68.32
2022-08-03T04:12:38.205Z,68.52
2022-08-03T04:15:43.027Z,68.02
2022-08-03T04:18:51.267Z,67.71
2022-08-03T04:21:59.422Z,67.88
2022-08-03T04:25:06.769Z,67.98
2022-08-03T04:28:30.885Z,68.29
2022-08-03T04:31:20.712Z,67.78
2022-08-03T04:34:28.024Z,67.88
2022-08-03T04:37:36.082Z,67.88
2022-08-03T04:40:43.387Z,67.38
2022-08-03T04:43:51.297Z,67.35
2022-08-03T04:46:59.367Z,67.45
2022-08-03T04:50:11.893Z,66.85
2022-08-03T04:53:10.009Z,66.55
2022-08-03T04:56:17.661Z,66.71
2022-08-03T04:59:25.463Z,66.61
2022-08-03T05:02:33.593Z,66.08
2022-08-03T05:05:50.311Z,65.98
2022-08-03T05:08:48.741Z,65.55
2022-08-03T05:11:47.638Z,65.01
2022-08-03T05:14:55.618Z,65.12
2022-08-03T05:18:03.409Z,64.48
2022-08-03T05:21:11.056Z,64.18
2022-08-03T05:24:19.453Z,63.85
2022-08-03T05:27:26.742Z,63.53
2022-08-03T05:30:34.976Z,63.32
2022-08-03T05:33:43.085Z,62.39
2022-08-03T05:36:50.327Z,62.39
2022-08-03T05:39:58.827Z,62.76
2022-08-03T05:43:06.515Z,62.66
2022-08-03T05:46:13.799Z,63.19
2022-08-03T05:49:21.524Z,63.79
2022-08-03T05:52:29.542Z,64.19
2022-08-03T05:55:36.794Z,64.09
2022-08-03T05:58:44.878Z,63.79
2022-08-03T06:01:52.942Z,64.26
2022-08-03T06:05:00.770Z,63.96
2022-08-03T06:08:08.539Z,63.23
2022-08-03T06:11:15.798Z,63.13
2022-08-03T06:14:24.011Z,63.30
2022-08-03T06:17:37.583Z,62.48
2022-08-03T06:20:34.835Z,62.77
2022-08-03T06:23:54.460Z,61.94
2022-08-03T06:26:47.984Z,61.25
2022-08-03T06:29:56.177Z,60.62
2022-08-03T06:33:04.293Z,60.22
2022-08-03T06:36:05.401Z,60.69
2022-08-03T06:39:13.340Z,60.86
2022-08-03T06:42:20.718Z,60.46
2022-08-03T06:45:31.661Z,59.64
2022-08-03T06:48:40.433Z,59.53
2022-08-03T06:52:06.089Z,59.21
2022-08-03T06:54:53.539Z,59.21
2022-08-03T06:58:03.554Z,59.08
2022-08-03T07:01:11.764Z,58.75
2022-08-03T07:04:20.198Z,58.75
2022-08-03T07:07:28.163Z,58.73
2022-08-03T07:10:35.673Z,55.42
2022-08-03T07:13:43.983Z,55.69
2022-08-03T07:16:51.745Z,55.36
2022-08-03T07:19:59.460Z,56.46
2022-08-03T07:23:07.647Z,54.94
2022-08-03T07:26:15.419Z,54.82
2022-08-03T07:29:23.328Z,52.84
2022-08-03T07:32:31.020Z,53.41
2022-08-03T07:35:38.942Z,53.18
2022-08-03T07:38:46.803Z,52.49
2022-08-03T07:41:54.494Z,52.56
2022-08-03T07:45:02.657Z,52.73
2022-08-03T07:48:13.659Z,52.01
2022-08-03T07:51:22.019Z,53.50
2022-08-03T07:54:30.091Z,52.81
2022-08-03T07:57:38.021Z,52.29
2022-08-03T08:00:45.941Z,51.70
2022-08-03T08:03:54.360Z,51.50
2022-08-03T08:07:01.824Z,51.40
2022-08-03T08:10:10.034Z,50.71
2022-08-03T08:13:18.487Z,50.19
2022-08-03T08:16:25.799Z,49.48
2022-08-03T08:19:33.939Z,49.65
2022-08-03T08:22:35.352Z,48.96
2022-08-03T08:25:45.436Z,49.03
2022-08-03T08:28:53.655Z,47.94
2022-08-03T08:32:01.386Z,48.14
2022-08-03T08:35:09.196Z,48.61
2022-08-03T08:38:16.837Z,47.31
2022-08-03T08:41:25.098Z,46.91
2022-08-03T08:44:28.790Z,47.70
2022-08-03T08:47:51.800Z,47.01
2022-08-03T08:50:41.764Z,47.21
2022-08-03T08:53:49.623Z,47.21
2022-08-03T08:56:57.626Z,46.91
2022-08-03T09:00:05.706Z,48.37
2022-08-03T09:03:13.399Z,47.28
2022-08-03T09:06:19.162Z,46.62
2022-08-03T09:10:05.249Z,46.52
2022-08-03T09:12:41.625Z,46.62
2022-08-03T09:15:38.684Z,48.27
2022-08-03T09:18:46.791Z,46.57
2022-08-03T09:21:54.527Z,45.59
2022-08-03T09:28:10.607Z,45.19
2022-08-03T09:31:19.468Z,46.45
2022-08-03T09:34:28.086Z,46.15
2022-08-03T09:38:12.787Z,45.45
2022-08-03T09:40:41.824Z,45.15
2022-08-03T09:43:49.865Z,45.23
2022-08-03T09:46:57.856Z,44.73
2022-08-03T09:50:06.314Z,44.34
2022-08-03T09:53:14.302Z,44.52
2022-08-03T09:56:35.684Z,44.64
2022-08-03T09:59:27.029Z,45.23
2022-08-03T10:02:34.743Z,43.73
2022-08-03T10:05:42.435Z,45.10
2022-08-03T10:08:50.493Z,43.83
2022-08-03T10:11:58.908Z,45.03
2022-08-03T10:15:06.938Z,44.71
2022-08-03T10:18:11.956Z,44.10
2022-08-03T10:21:20.176Z,42.82
2022-08-03T10:24:27.513Z,42.51
2022-08-03T10:27:35.285Z,41.88
2022-08-03T10:30:43.376Z,42.29
2022-08-03T10:33:53.124Z,42.88
2022-08-03T10:37:00.963Z,43.18
2022-08-03T10:40:09.330Z,42.10
2022-08-03T10:43:16.671Z,43.18
2022-08-03T10:46:24.614Z,42.29
2022-08-03T10:49:34.023Z,41.58
2022-08-03T10:52:45.366Z,41.78
2022-08-03T10:55:45.917Z,40.98
2022-08-03T10:58:57.909Z,39.69
2022-08-03T11:01:59.131Z,40.56
2022-08-03T11:04:57.061Z,39.98
2022-08-03T11:08:05.164Z,40.43
2022-08-03T11:11:12.844Z,39.94
2022-08-03T11:14:20.502Z,39.47
2022-08-03T11:17:28.686Z,39.86
2022-08-03T11:20:35.985Z,39.29
2022-08-03T11:24:02.477Z,39.98
2022-08-03T11:26:50.200Z,38.86
2022-08-03T11:29:49.771Z,39.41
2022-08-03T11:32:58.484Z,37.95
2022-08-03T11:36:05.737Z,38.43
2022-08-03T11:39:13.558Z,39.61
2022-08-03T11:42:14.626Z,38.35
2022-08-03T11:45:22.779Z,38.45
2022-08-03T11:48:30.761Z,38.55
2022-08-03T11:51:38.593Z,37.27
2022-08-03T11:54:46.372Z,38.55
2022-08-03T11:59:19.066Z,37.27
2022-08-03T12:00:59.306Z,36.87
2022-08-03T12:04:07.333Z,37.54
2022-08-03T12:08:02.630Z,37.26
2022-08-03T12:10:20.261Z,36.96
2022-08-03T12:14:44.705Z,36.57
2022-08-03T12:16:33.162Z,36.16
2022-08-03T12:19:41.225Z,38.02
2022-08-03T12:22:48.613Z,37.93
2022-08-03T12:25:56.857Z,37.12
2022-08-03T12:29:05.151Z,37.62
2022-08-03T12:32:12.558Z,36.83
2022-08-03T12:35:20.773Z,37.02
2022-08-03T12:38:29.638Z,36.43
2022-08-03T12:41:38.173Z,37.02
2022-08-03T12:44:46.007Z,37.02
2022-08-03T12:47:53.849Z,37.32
2022-08-03T12:51:01.730Z,36.43
2022-08-03T12:54:09.707Z,35.43
2022-08-03T12:57:17.922Z,35.31
2022-08-03T13:00:28.813Z,35.20
2022-08-03T13:03:39.134Z,35.92
2022-08-03T13:06:31.249Z,35.59
2022-08-03T13:09:39.007Z,35.47
2022-08-03T13:12:46.760Z,35.00
2022-08-03T13:15:54.585Z,35.69
2022-08-03T13:19:02.392Z,36.06
2022-08-03T13:22:10.304Z,35.08
2022-08-03T13:25:18.172Z,35.10
2022-08-03T13:28:25.476Z,35.39
2022-08-03T13:31:33.597Z,35.59
2022-08-03T13:34:41.368Z,34.19
2022-08-03T13:37:49.168Z,34.09
2022-08-03T13:40:56.903Z,33.90
2022-08-03T13:44:26.693Z,34.21
2022-08-03T13:47:09.602Z,34.69
2022-08-03T13:50:17.718Z,33.31
2022-08-03T13:53:18.428Z,33.72
2022-08-03T13:56:21.901Z,35.85
2022-08-03T13:59:30.173Z,34.35
2022-08-03T14:02:37.529Z,33.49
2022-08-03T14:05:45.585Z,34.79
2022-08-03T14:08:56.787Z,35.18
2022-08-03T14:12:07.685Z,34.81
2022-08-03T14:15:01.697Z,34.83
2022-08-03T14:18:13.011Z,35.33
2022-08-03T14:21:12.992Z,34.94
2022-08-03T14:24:21.679Z,36.02
2022-08-03T14:27:31.010Z,36.13
2022-08-03T14:30:38.856Z,36.83
2022-08-03T14:33:47.097Z,37.40
2022-08-03T14:36:54.395Z,36.82
2022-08-03T14:40:02.322Z,35.43
2022-08-03T14:43:09.984Z,35.02
2022-08-03T14:46:17.683Z,34.53
2022-08-03T14:50:38.969Z,34.73
2022-08-03T14:52:30.976Z,35.71
2022-08-03T14:55:50.344Z,36.21
2022-08-03T14:58:44.330Z,37.09
2022-08-03T15:02:04.317Z,36.70
2022-08-03T15:04:57.362Z,37.40
2022-08-03T15:08:09.081Z,38.38
2022-08-03T15:11:06.695Z,37.79
2022-08-03T15:14:14.768Z,36.72
2022-08-03T15:17:22.637Z,37.70
2022-08-03T15:20:43.263Z,39.37
2022-08-03T15:23:35.549Z,37.04
2022-08-03T15:26:43.731Z,37.04
2022-08-03T15:30:06.672Z,41.13
2022-08-03T15:32:56.146Z,38.10
2022-08-03T15:36:03.938Z,36.93
2022-08-03T15:39:11.536Z,36.73
2022-08-03T15:42:19.711Z,36.54
2022-08-03T15:45:28.702Z,36.54
2022-08-03T15:48:32.653Z,36.73
2022-08-03T15:51:40.821Z,36.44
2022-08-03T15:54:48.295Z,43.38
2022-08-03T15:59:04.449Z,44.48
2022-08-03T16:01:01.262Z,43.81
2022-08-03T16:04:08.901Z,44.44
2022-08-03T16:07:17.268Z,46.03
2022-08-03T16:10:25.227Z,45.66
2022-08-03T16:14:12.356Z,45.56
2022-08-03T16:16:38.642Z,46.64
2022-08-03T16:19:46.966Z,45.47
2022-08-03T16:22:54.289Z,45.66
2022-08-03T16:26:06.147Z,44.88
2022-08-03T16:29:05.237Z,46.54
2022-08-03T16:32:10.837Z,44.09
2022-08-03T16:35:19.402Z,42.99
2022-08-03T16:38:27.195Z,41.82
2022-08-03T16:41:54.226Z,42.31
2022-08-03T16:44:41.332Z,42.91
2022-08-03T16:48:05.194Z,45.29
2022-08-03T16:50:54.301Z,46.10
2022-08-03T16:54:07.481Z,46.51
2022-08-03T16:57:05.132Z,48.01
2022-08-03T17:00:33.925Z,48.03
2022-08-03T17:03:20.585Z,48.65
2022-08-03T17:06:21.833Z,49.33
2022-08-03T17:09:29.397Z,48.05
2022-08-03T17:12:34.510Z,49.06
2022-08-03T17:15:58.240Z,47.88
2022-08-03T17:18:48.019Z,49.04
2022-08-03T17:21:57.274Z,49.82
2022-08-03T17:25:07.448Z,48.55
2022-08-03T17:28:49.247Z,48.52
2022-08-03T17:31:22.928Z,49.41
2022-08-03T17:34:26.534Z,47.81
2022-08-03T17:38:04.045Z,49.58
2022-08-03T17:40:40.012Z,50.19
2022-08-03T17:44:16.046Z,50.02
2022-08-03T17:46:49.490Z,51.98
2022-08-03T17:49:58.763Z,53.19
2022-08-03T17:53:23.650Z,53.91
2022-08-03T17:56:42.386Z,51.97
2022-08-03T17:59:50.747Z,52.16
2022-08-03T18:02:30.324Z,52.95
2022-08-03T18:06:11.371Z,53.24
2022-08-03T18:08:33.890Z,53.34
2022-08-03T18:11:41.751Z,53.07
2022-08-03T18:14:57.206Z,54.47
2022-08-03T18:18:02.367Z,55.29
2022-08-03T18:20:59.891Z,56.87
2022-08-03T18:24:01.760Z,57.49
2022-08-03T18:27:10.607Z,57.59
2022-08-03T18:30:18.549Z,56.43
2022-08-03T18:34:19.337Z,57.32
2022-08-03T18:36:30.490Z,58.73
2022-08-03T18:39:27.761Z,59.15
2022-08-03T18:42:37.093Z,59.64
2022-08-03T18:45:55.944Z,58.88
2022-08-03T18:48:47.431Z,60.39
2022-08-03T18:51:57.324Z,60.79
2022-08-03T18:55:13.965Z,60.82
2022-08-03T18:58:17.921Z,59.76
2022-08-03T19:01:58.643Z,59.56
2022-08-03T19:04:20.131Z,59.95
2022-08-03T19:07:23.254Z,59.86
2022-08-03T19:10:32.242Z,60.48
2022-08-03T19:13:39.677Z,59.59
2022-08-03T19:16:41.755Z,60.11
2022-08-03T19:19:50.785Z,60.91
2022-08-03T19:22:58.643Z,60.41
2022-08-03T19:26:06.821Z,60.64
2022-08-03T19:32:17.051Z,59.88
2022-08-03T19:35:51.580Z,61.36
2022-08-03T19:38:30.155Z,61.56
2022-08-03T19:41:31.018Z,61.86
2022-08-03T19:44:36.073Z,62.98
2022-08-03T19:47:44.388Z,62.38
2022-08-03T19:50:51.903Z,63.31
2022-08-03T19:54:00.335Z,63.83
2022-08-03T19:57:09.925Z,63.34
2022-08-03T20:00:13.967Z,62.97
2022-08-03T20:06:27.636Z,62.97
2022-08-03T20:09:35.134Z,64.26
2022-08-03T20:12:43.929Z,64.36
2022-08-03T20:15:53.314Z,63.30
2022-08-03T20:19:02.191Z,63.60
2022-08-03T20:22:17.949Z,64.59
2022-08-03T20:25:16.413Z,64.39
2022-08-03T20:28:20.333Z,63.89
2022-08-03T20:31:32.611Z,64.42
2022-08-03T20:34:29.313Z,66.51
2022-08-03T20:37:37.753Z,65.72
2022-08-03T20:40:45.867Z,65.91
2022-08-03T20:43:54.030Z,65.72
2022-08-03T20:47:02.111Z,66.35
2022-08-03T20:50:10.254Z,66.74
2022-08-03T20:54:00.360Z,67.24
2022-08-03T20:56:24.887Z,66.44
2022-08-03T20:59:50.549Z,66.38
2022-08-03T21:02:38.597Z,66.27
2022-08-03T21:05:51.769Z,67.67
2022-08-03T21:08:51.107Z,67.44
2022-08-03T21:12:00.524Z,66.54
2022-08-03T21:13:02.204Z,59.84
2022-08-03T21:13:03.418Z,62.57
2022-08-03T21:15:08.846Z,66.27
2022-08-03T21:18:16.755Z,66.57
2022-08-03T21:21:24.619Z,65.88
2022-08-03T21:24:32.876Z,64.98
2022-08-03T21:27:40.679Z,65.11
2022-08-03T21:30:48.580Z,65.81
2022-08-03T21:33:56.738Z,66.41
2022-08-03T21:37:04.662Z,66.50
2022-08-03T21:40:12.575Z,65.61
2022-08-03T21:43:20.053Z,65.41
2022-08-03T21:46:27.986Z,65.91
2022-08-03T21:50:07.203Z,65.94
2022-08-03T21:52:41.231Z,66.04
2022-08-03T21:55:49.162Z,65.34
2022-08-03T21:58:57.302Z,66.24
2022-08-03T22:02:05.103Z,66.04
2022-08-03T22:05:10.389Z,65.74
2022-08-03T22:08:13.308Z,65.44
2022-08-03T22:11:21.203Z,65.44
2022-08-03T22:14:28.646Z,65.94
2022-08-03T22:17:54.772Z,66.44
2022-08-03T22:20:42.135Z,65.54
2022-08-03T22:23:49.562Z,65.97
2022-08-03T22:26:57.793Z,66.37
2022-08-03T22:30:05.570Z,67.00
2022-08-03T22:33:13.304Z,67.50
2022-08-03T22:36:21.404Z,68.30
2022-08-03T22:39:29.139Z,67.36
2022-08-03T22:42:36.698Z,68.99
2022-08-03T22:46:10.565Z,68.90
2022-08-03T22:48:49.856Z,68.73
2022-08-03T22:51:57.722Z,69.92
2022-08-03T22:55:05.230Z,69.73
2022-08-03T22:58:13.774Z,69.96
2022-08-03T23:01:21.317Z,69.96
2022-08-03T23:04:28.753Z,70.89
2022-08-03T23:07:37.598Z,70.92
2022-08-03T23:10:47.197Z,72.16
2022-08-03T23:13:55.351Z,73.06
2022-08-03T23:17:03.582Z,72.49
2022-08-03T23:20:11.040Z,73.69
2022-08-03T23:23:20.593Z,73.49
2022-08-03T23:26:29.092Z,73.29
2022-08-03T23:29:36.661Z,73.19
2022-08-03T23:32:44.516Z,71.59
2022-08-03T23:36:22.648Z,71.49
2022-08-03T23:38:54.776Z,73.39
2022-08-03T23:42:02.351Z,73.59
2022-08-03T23:45:10.510Z,73.89
2022-08-03T23:48:18.289Z,72.59
2022-08-03T23:51:26.083Z,71.89
2022-08-03T23:54:34.157Z,72.76
2022-08-03T23:57:42.086Z,71.59
